sensor_id;sensor_type;location;lat;lon;timestamp;P1;durP1;ratioP1;P2;durP2;ratioP2
79015;SDS011;72726;44.842;37.556;2024-01-25T00:00:35;4.95;;;1.58;;
79015;SDS011;72726;44.842;37.556;2024-01-25T00:01:37;3.40;;;1.08;;
79015;SDS011;72726;44.842;37.556;2024-01-25T00:02:38;2.70;;;1.08;;
79015;SDS011;72726;44.842;37.556;2024-01-25T00:03:39;4.72;;;1.20;;
79015;SDS011;72726;44.842;37.556;2024-01-25T00:04:40;2.42;;;1.20;;
79015;SDS011;72726;44.842;37.556;2024-01-25T00:05:43;3.30;;;1.20;;
79015;SDS011;72726;44.842;37.556;2024-01-25T00:06:44;4.25;;;1.30;;
79015;SDS011;72726;44.842;37.556;2024-01-25T00:07:46;2.92;;;1.35;;
79015;SDS011;72726;44.842;37.556;2024-01-25T00:08:47;6.40;;;1.27;;
79015;SDS011;72726;44.842;37.556;2024-01-25T00:09:48;1.63;;;0.90;;
79015;SDS011;72726;44.842;37.556;2024-01-25T00:10:50;3.45;;;1.25;;
79015;SDS011;72726;44.842;37.556;2024-01-25T00:11:51;3.25;;;1.20;;
79015;SDS011;72726;44.842;37.556;2024-01-25T00:12:52;4.25;;;1.20;;
79015;SDS011;72726;44.842;37.556;2024-01-25T00:13:53;2.65;;;1.17;;
79015;SDS011;72726;44.842;37.556;2024-01-25T00:14:54;2.97;;;1.30;;
79015;SDS011;72726;44.842;37.556;2024-01-25T00:15:55;3.33;;;1.40;;
79015;SDS011;72726;44.842;37.556;2024-01-25T00:16:57;3.38;;;1.30;;
79015;SDS011;72726;44.842;37.556;2024-01-25T00:17:58;2.47;;;1.23;;
79015;SDS011;72726;44.842;37.556;2024-01-25T00:18:59;3.47;;;1.17;;
79015;SDS011;72726;44.842;37.556;2024-01-25T00:20:00;3.67;;;1.05;;
79015;SDS011;72726;44.842;37.556;2024-01-25T00:21:01;4.05;;;1.70;;
79015;SDS011;72726;44.842;37.556;2024-01-25T00:22:02;3.55;;;1.27;;
79015;SDS011;72726;44.842;37.556;2024-01-25T00:23:04;3.42;;;1.40;;
79015;SDS011;72726;44.842;37.556;2024-01-25T00:24:05;3.35;;;1.50;;
79015;SDS011;72726;44.842;37.556;2024-01-25T00:25:06;2.28;;;1.30;;
79015;SDS011;72726;44.842;37.556;2024-01-25T00:26:08;3.60;;;1.50;;
79015;SDS011;72726;44.842;37.556;2024-01-25T00:27:09;2.47;;;1.20;;
79015;SDS011;72726;44.842;37.556;2024-01-25T00:28:10;2.90;;;1.20;;
79015;SDS011;72726;44.842;37.556;2024-01-25T00:29:13;2.50;;;1.20;;
79015;SDS011;72726;44.842;37.556;2024-01-25T00:30:16;3.38;;;1.23;;
79015;SDS011;72726;44.842;37.556;2024-01-25T00:31:17;2.13;;;1.27;;
79015;SDS011;72726;44.842;37.556;2024-01-25T00:32:18;3.35;;;1.30;;
79015;SDS011;72726;44.842;37.556;2024-01-25T00:33:19;2.78;;;1.10;;
79015;SDS011;72726;44.842;37.556;2024-01-25T00:34:20;2.53;;;1.13;;
79015;SDS011;72726;44.842;37.556;2024-01-25T00:35:22;2.42;;;1.02;;
79015;SDS011;72726;44.842;37.556;2024-01-25T00:36:24;3.90;;;0.98;;
79015;SDS011;72726;44.842;37.556;2024-01-25T00:37:26;2.25;;;0.98;;
79015;SDS011;72726;44.842;37.556;2024-01-25T00:38:28;3.90;;;1.10;;
79015;SDS011;72726;44.842;37.556;2024-01-25T00:39:29;1.05;;;0.70;;
79015;SDS011;72726;44.842;37.556;2024-01-25T00:40:30;3.17;;;1.08;;
79015;SDS011;72726;44.842;37.556;2024-01-25T00:41:32;2.53;;;1.17;;
79015;SDS011;72726;44.842;37.556;2024-01-25T00:42:43;2.30;;;1.23;;
79015;SDS011;72726;44.842;37.556;2024-01-25T00:43:49;1.70;;;0.93;;
79015;SDS011;72726;44.842;37.556;2024-01-25T00:44:51;2.25;;;0.90;;
79015;SDS011;72726;44.842;37.556;2024-01-25T00:45:53;3.13;;;1.00;;
79015;SDS011;72726;44.842;37.556;2024-01-25T00:46:55;1.85;;;1.10;;
79015;SDS011;72726;44.842;37.556;2024-01-25T00:47:56;2.90;;;1.05;;
79015;SDS011;72726;44.842;37.556;2024-01-25T00:48:58;3.55;;;1.10;;
79015;SDS011;72726;44.842;37.556;2024-01-25T00:50:00;3.25;;;1.00;;
79015;SDS011;72726;44.842;37.556;2024-01-25T00:51:02;1.83;;;0.85;;
79015;SDS011;72726;44.842;37.556;2024-01-25T00:52:07;5.28;;;1.48;;
79015;SDS011;72726;44.842;37.556;2024-01-25T00:53:09;5.78;;;1.15;;
79015;SDS011;72726;44.842;37.556;2024-01-25T00:54:11;2.30;;;1.15;;
79015;SDS011;72726;44.842;37.556;2024-01-25T00:55:13;3.05;;;1.10;;
79015;SDS011;72726;44.842;37.556;2024-01-25T00:56:15;1.95;;;1.00;;
79015;SDS011;72726;44.842;37.556;2024-01-25T00:57:17;2.00;;;1.10;;
79015;SDS011;72726;44.842;37.556;2024-01-25T00:58:19;3.03;;;1.00;;
79015;SDS011;72726;44.842;37.556;2024-01-25T00:59:20;3.58;;;1.10;;
79015;SDS011;72726;44.842;37.556;2024-01-25T01:00:22;3.30;;;1.02;;
79015;SDS011;72726;44.842;37.556;2024-01-25T01:01:24;2.40;;;1.00;;
79015;SDS011;72726;44.842;37.556;2024-01-25T01:02:26;2.03;;;0.82;;
79015;SDS011;72726;44.842;37.556;2024-01-25T01:03:31;3.15;;;1.38;;
79015;SDS011;72726;44.842;37.556;2024-01-25T01:04:33;2.80;;;0.93;;
79015;SDS011;72726;44.842;37.556;2024-01-25T01:05:34;2.05;;;1.08;;
79015;SDS011;72726;44.842;37.556;2024-01-25T01:06:36;2.47;;;1.10;;
79015;SDS011;72726;44.842;37.556;2024-01-25T01:07:38;3.15;;;1.20;;
79015;SDS011;72726;44.842;37.556;2024-01-25T01:08:41;2.15;;;1.10;;
79015;SDS011;72726;44.842;37.556;2024-01-25T01:09:43;3.83;;;1.05;;
79015;SDS011;72726;44.842;37.556;2024-01-25T01:10:44;2.17;;;1.25;;
79015;SDS011;72726;44.842;37.556;2024-01-25T01:11:46;2.20;;;1.10;;
79015;SDS011;72726;44.842;37.556;2024-01-25T01:12:47;3.88;;;1.30;;
79015;SDS011;72726;44.842;37.556;2024-01-25T01:13:49;1.95;;;1.10;;
79015;SDS011;72726;44.842;37.556;2024-01-25T01:14:50;3.00;;;1.20;;
79015;SDS011;72726;44.842;37.556;2024-01-25T01:15:51;3.10;;;1.15;;
79015;SDS011;72726;44.842;37.556;2024-01-25T01:16:52;1.75;;;1.00;;
79015;SDS011;72726;44.842;37.556;2024-01-25T01:17:54;2.47;;;1.08;;
79015;SDS011;72726;44.842;37.556;2024-01-25T01:18:55;3.40;;;1.20;;
79015;SDS011;72726;44.842;37.556;2024-01-25T01:19:56;2.13;;;1.10;;
79015;SDS011;72726;44.842;37.556;2024-01-25T01:20:58;1.65;;;0.82;;
79015;SDS011;72726;44.842;37.556;2024-01-25T01:21:59;1.85;;;0.90;;
79015;SDS011;72726;44.842;37.556;2024-01-25T01:23:00;3.63;;;1.33;;
79015;SDS011;72726;44.842;37.556;2024-01-25T01:24:02;2.20;;;1.00;;
79015;SDS011;72726;44.842;37.556;2024-01-25T01:25:04;4.13;;;1.23;;
79015;SDS011;72726;44.842;37.556;2024-01-25T01:26:06;2.80;;;1.17;;
79015;SDS011;72726;44.842;37.556;2024-01-25T01:27:08;2.50;;;1.10;;
79015;SDS011;72726;44.842;37.556;2024-01-25T01:28:09;3.40;;;1.20;;
79015;SDS011;72726;44.842;37.556;2024-01-25T01:29:10;3.22;;;1.20;;
79015;SDS011;72726;44.842;37.556;2024-01-25T01:30:12;3.08;;;1.30;;
79015;SDS011;72726;44.842;37.556;2024-01-25T01:31:13;2.15;;;1.15;;
79015;SDS011;72726;44.842;37.556;2024-01-25T01:32:15;2.80;;;1.27;;
79015;SDS011;72726;44.842;37.556;2024-01-25T01:33:16;2.65;;;1.20;;
79015;SDS011;72726;44.842;37.556;2024-01-25T01:34:17;2.88;;;1.15;;
79015;SDS011;72726;44.842;37.556;2024-01-25T01:35:19;2.70;;;1.20;;
79015;SDS011;72726;44.842;37.556;2024-01-25T01:36:20;4.60;;;1.33;;
79015;SDS011;72726;44.842;37.556;2024-01-25T01:37:22;1.90;;;1.13;;
79015;SDS011;72726;44.842;37.556;2024-01-25T01:38:23;3.35;;;0.90;;
79015;SDS011;72726;44.842;37.556;2024-01-25T01:39:24;4.13;;;1.15;;
79015;SDS011;72726;44.842;37.556;2024-01-25T01:40:27;2.45;;;0.88;;
79015;SDS011;72726;44.842;37.556;2024-01-25T01:41:28;2.40;;;1.02;;
79015;SDS011;72726;44.842;37.556;2024-01-25T01:42:30;2.22;;;1.08;;
79015;SDS011;72726;44.842;37.556;2024-01-25T01:43:32;3.10;;;0.90;;
79015;SDS011;72726;44.842;37.556;2024-01-25T01:44:34;2.78;;;1.02;;
79015;SDS011;72726;44.842;37.556;2024-01-25T01:45:36;3.58;;;1.08;;
79015;SDS011;72726;44.842;37.556;2024-01-25T01:46:37;2.83;;;1.13;;
79015;SDS011;72726;44.842;37.556;2024-01-25T01:47:40;2.33;;;1.05;;
79015;SDS011;72726;44.842;37.556;2024-01-25T01:48:42;5.80;;;1.33;;
79015;SDS011;72726;44.842;37.556;2024-01-25T01:49:44;4.80;;;1.40;;
79015;SDS011;72726;44.842;37.556;2024-01-25T01:50:45;2.75;;;1.02;;
79015;SDS011;72726;44.842;37.556;2024-01-25T01:51:47;2.38;;;1.10;;
79015;SDS011;72726;44.842;37.556;2024-01-25T01:52:49;3.05;;;1.33;;
79015;SDS011;72726;44.842;37.556;2024-01-25T01:53:51;2.55;;;1.23;;
79015;SDS011;72726;44.842;37.556;2024-01-25T01:54:54;3.20;;;0.90;;
79015;SDS011;72726;44.842;37.556;2024-01-25T01:55:57;3.53;;;1.08;;
79015;SDS011;72726;44.842;37.556;2024-01-25T01:56:58;1.88;;;1.08;;
79015;SDS011;72726;44.842;37.556;2024-01-25T01:58:00;4.35;;;1.20;;
79015;SDS011;72726;44.842;37.556;2024-01-25T01:59:02;1.80;;;0.90;;
79015;SDS011;72726;44.842;37.556;2024-01-25T02:00:06;2.08;;;1.08;;
79015;SDS011;72726;44.842;37.556;2024-01-25T02:01:12;1.92;;;1.10;;
79015;SDS011;72726;44.842;37.556;2024-01-25T02:02:14;1.90;;;1.02;;
79015;SDS011;72726;44.842;37.556;2024-01-25T02:03:15;2.53;;;1.17;;
79015;SDS011;72726;44.842;37.556;2024-01-25T02:04:16;1.73;;;1.00;;
79015;SDS011;72726;44.842;37.556;2024-01-25T02:05:18;2.63;;;1.02;;
79015;SDS011;72726;44.842;37.556;2024-01-25T02:06:19;1.98;;;1.02;;
79015;SDS011;72726;44.842;37.556;2024-01-25T02:07:21;3.22;;;1.00;;
79015;SDS011;72726;44.842;37.556;2024-01-25T02:08:22;1.80;;;1.00;;
79015;SDS011;72726;44.842;37.556;2024-01-25T02:09:24;1.23;;;0.88;;
79015;SDS011;72726;44.842;37.556;2024-01-25T02:10:25;2.78;;;1.00;;
79015;SDS011;72726;44.842;37.556;2024-01-25T02:11:26;2.60;;;0.95;;
79015;SDS011;72726;44.842;37.556;2024-01-25T02:12:28;2.42;;;0.93;;
79015;SDS011;72726;44.842;37.556;2024-01-25T02:13:31;2.47;;;1.15;;
79015;SDS011;72726;44.842;37.556;2024-01-25T02:14:32;1.70;;;1.00;;
79015;SDS011;72726;44.842;37.556;2024-01-25T02:15:33;1.63;;;0.90;;
79015;SDS011;72726;44.842;37.556;2024-01-25T02:16:35;2.15;;;1.10;;
79015;SDS011;72726;44.842;37.556;2024-01-25T02:17:36;2.15;;;0.93;;
79015;SDS011;72726;44.842;37.556;2024-01-25T02:18:37;2.28;;;1.10;;
79015;SDS011;72726;44.842;37.556;2024-01-25T02:19:39;4.90;;;1.27;;
79015;SDS011;72726;44.842;37.556;2024-01-25T02:20:40;2.50;;;1.17;;
79015;SDS011;72726;44.842;37.556;2024-01-25T02:21:42;1.65;;;0.98;;
79015;SDS011;72726;44.842;37.556;2024-01-25T02:22:43;1.75;;;1.00;;
79015;SDS011;72726;44.842;37.556;2024-01-25T02:23:44;3.05;;;1.20;;
79015;SDS011;72726;44.842;37.556;2024-01-25T02:24:45;3.22;;;1.10;;
79015;SDS011;72726;44.842;37.556;2024-01-25T02:25:47;2.53;;;1.40;;
79015;SDS011;72726;44.842;37.556;2024-01-25T02:26:48;2.20;;;1.10;;
79015;SDS011;72726;44.842;37.556;2024-01-25T02:27:49;2.35;;;1.10;;
79015;SDS011;72726;44.842;37.556;2024-01-25T02:28:50;2.58;;;1.20;;
79015;SDS011;72726;44.842;37.556;2024-01-25T02:29:52;1.85;;;1.20;;
79015;SDS011;72726;44.842;37.556;2024-01-25T02:30:53;3.63;;;1.00;;
79015;SDS011;72726;44.842;37.556;2024-01-25T02:31:54;3.65;;;1.08;;
79015;SDS011;72726;44.842;37.556;2024-01-25T02:32:56;1.90;;;0.80;;
79015;SDS011;72726;44.842;37.556;2024-01-25T02:33:57;5.32;;;0.90;;
79015;SDS011;72726;44.842;37.556;2024-01-25T02:35:01;1.95;;;0.90;;
79015;SDS011;72726;44.842;37.556;2024-01-25T02:36:03;1.92;;;0.93;;
79015;SDS011;72726;44.842;37.556;2024-01-25T02:37:07;2.00;;;0.88;;
79015;SDS011;72726;44.842;37.556;2024-01-25T02:38:08;4.07;;;1.35;;
79015;SDS011;72726;44.842;37.556;2024-01-25T02:39:10;2.80;;;1.30;;
79015;SDS011;72726;44.842;37.556;2024-01-25T02:40:11;2.35;;;1.40;;
79015;SDS011;72726;44.842;37.556;2024-01-25T02:41:13;3.72;;;1.10;;
79015;SDS011;72726;44.842;37.556;2024-01-25T02:42:15;3.75;;;1.05;;
79015;SDS011;72726;44.842;37.556;2024-01-25T02:43:17;3.42;;;1.00;;
79015;SDS011;72726;44.842;37.556;2024-01-25T02:44:18;1.85;;;1.10;;
79015;SDS011;72726;44.842;37.556;2024-01-25T02:45:20;2.90;;;1.20;;
79015;SDS011;72726;44.842;37.556;2024-01-25T02:46:21;2.28;;;1.05;;
79015;SDS011;72726;44.842;37.556;2024-01-25T02:47:22;4.65;;;1.25;;
79015;SDS011;72726;44.842;37.556;2024-01-25T02:48:23;1.70;;;1.10;;
79015;SDS011;72726;44.842;37.556;2024-01-25T02:49:24;2.53;;;1.15;;
79015;SDS011;72726;44.842;37.556;2024-01-25T02:50:25;2.10;;;0.90;;
79015;SDS011;72726;44.842;37.556;2024-01-25T02:51:27;2.28;;;1.15;;
79015;SDS011;72726;44.842;37.556;2024-01-25T02:52:28;5.45;;;0.90;;
79015;SDS011;72726;44.842;37.556;2024-01-25T02:53:29;1.48;;;0.90;;
79015;SDS011;72726;44.842;37.556;2024-01-25T02:54:30;2.35;;;0.95;;
79015;SDS011;72726;44.842;37.556;2024-01-25T02:55:35;3.38;;;0.80;;
79015;SDS011;72726;44.842;37.556;2024-01-25T02:56:36;1.65;;;0.90;;
79015;SDS011;72726;44.842;37.556;2024-01-25T02:57:37;2.67;;;0.90;;
79015;SDS011;72726;44.842;37.556;2024-01-25T02:58:38;1.75;;;0.98;;
79015;SDS011;72726;44.842;37.556;2024-01-25T02:59:39;3.53;;;1.08;;
79015;SDS011;72726;44.842;37.556;2024-01-25T03:00:41;1.90;;;0.93;;
79015;SDS011;72726;44.842;37.556;2024-01-25T03:01:42;3.90;;;1.13;;
79015;SDS011;72726;44.842;37.556;2024-01-25T03:02:44;2.22;;;1.00;;
79015;SDS011;72726;44.842;37.556;2024-01-25T03:03:45;2.55;;;1.00;;
79015;SDS011;72726;44.842;37.556;2024-01-25T03:04:46;3.22;;;1.10;;
79015;SDS011;72726;44.842;37.556;2024-01-25T03:05:48;3.30;;;1.10;;
79015;SDS011;72726;44.842;37.556;2024-01-25T03:06:49;2.65;;;1.10;;
79015;SDS011;72726;44.842;37.556;2024-01-25T03:07:50;6.40;;;1.30;;
79015;SDS011;72726;44.842;37.556;2024-01-25T03:08:51;4.93;;;1.85;;
79015;SDS011;72726;44.842;37.556;2024-01-25T03:09:52;3.72;;;1.48;;
79015;SDS011;72726;44.842;37.556;2024-01-25T03:10:53;6.00;;;1.30;;
79015;SDS011;72726;44.842;37.556;2024-01-25T03:11:55;2.70;;;1.20;;
79015;SDS011;72726;44.842;37.556;2024-01-25T03:12:56;2.63;;;1.10;;
79015;SDS011;72726;44.842;37.556;2024-01-25T03:13:57;1.63;;;0.80;;
79015;SDS011;72726;44.842;37.556;2024-01-25T03:14:59;2.38;;;1.00;;
79015;SDS011;72726;44.842;37.556;2024-01-25T03:16:00;1.73;;;1.00;;
79015;SDS011;72726;44.842;37.556;2024-01-25T03:17:01;1.23;;;0.90;;
79015;SDS011;72726;44.842;37.556;2024-01-25T03:18:03;2.92;;;1.10;;
79015;SDS011;72726;44.842;37.556;2024-01-25T03:19:04;5.07;;;1.35;;
79015;SDS011;72726;44.842;37.556;2024-01-25T03:20:05;3.75;;;1.25;;
79015;SDS011;72726;44.842;37.556;2024-01-25T03:21:07;4.97;;;1.33;;
79015;SDS011;72726;44.842;37.556;2024-01-25T03:22:08;3.92;;;1.50;;
79015;SDS011;72726;44.842;37.556;2024-01-25T03:23:09;5.30;;;1.33;;
79015;SDS011;72726;44.842;37.556;2024-01-25T03:24:10;4.10;;;1.13;;
79015;SDS011;72726;44.842;37.556;2024-01-25T03:25:12;3.22;;;1.25;;
79015;SDS011;72726;44.842;37.556;2024-01-25T03:26:13;3.10;;;1.38;;
79015;SDS011;72726;44.842;37.556;2024-01-25T03:27:14;3.92;;;1.20;;
79015;SDS011;72726;44.842;37.556;2024-01-25T03:28:15;2.50;;;1.02;;
79015;SDS011;72726;44.842;37.556;2024-01-25T03:29:19;2.90;;;1.10;;
79015;SDS011;72726;44.842;37.556;2024-01-25T03:30:20;2.78;;;1.40;;
79015;SDS011;72726;44.842;37.556;2024-01-25T03:31:21;3.92;;;1.30;;
79015;SDS011;72726;44.842;37.556;2024-01-25T03:32:22;3.65;;;1.23;;
79015;SDS011;72726;44.842;37.556;2024-01-25T03:33:23;2.00;;;1.20;;
79015;SDS011;72726;44.842;37.556;2024-01-25T03:34:25;2.50;;;1.27;;
79015;SDS011;72726;44.842;37.556;2024-01-25T03:35:26;3.03;;;1.60;;
79015;SDS011;72726;44.842;37.556;2024-01-25T03:36:28;3.08;;;1.30;;
79015;SDS011;72726;44.842;37.556;2024-01-25T03:37:29;3.03;;;0.90;;
79015;SDS011;72726;44.842;37.556;2024-01-25T03:38:30;3.00;;;1.10;;
79015;SDS011;72726;44.842;37.556;2024-01-25T03:39:32;2.67;;;1.20;;
79015;SDS011;72726;44.842;37.556;2024-01-25T03:40:33;4.10;;;1.30;;
79015;SDS011;72726;44.842;37.556;2024-01-25T03:41:34;3.20;;;1.20;;
79015;SDS011;72726;44.842;37.556;2024-01-25T03:42:35;3.20;;;1.25;;
79015;SDS011;72726;44.842;37.556;2024-01-25T03:43:37;3.35;;;1.20;;
79015;SDS011;72726;44.842;37.556;2024-01-25T03:44:38;1.98;;;1.05;;
79015;SDS011;72726;44.842;37.556;2024-01-25T03:45:39;2.97;;;0.82;;
79015;SDS011;72726;44.842;37.556;2024-01-25T03:46:40;1.98;;;1.00;;
79015;SDS011;72726;44.842;37.556;2024-01-25T03:47:41;2.05;;;0.90;;
79015;SDS011;72726;44.842;37.556;2024-01-25T03:48:42;2.20;;;1.25;;
79015;SDS011;72726;44.842;37.556;2024-01-25T03:49:44;3.08;;;1.08;;
79015;SDS011;72726;44.842;37.556;2024-01-25T03:50:46;2.10;;;0.88;;
79015;SDS011;72726;44.842;37.556;2024-01-25T03:51:47;1.50;;;0.90;;
79015;SDS011;72726;44.842;37.556;2024-01-25T03:52:48;2.85;;;1.20;;
79015;SDS011;72726;44.842;37.556;2024-01-25T03:53:49;1.85;;;1.00;;
79015;SDS011;72726;44.842;37.556;2024-01-25T03:54:50;1.10;;;0.90;;
79015;SDS011;72726;44.842;37.556;2024-01-25T03:55:52;1.80;;;1.13;;
79015;SDS011;72726;44.842;37.556;2024-01-25T03:56:53;2.05;;;1.00;;
79015;SDS011;72726;44.842;37.556;2024-01-25T03:57:54;2.50;;;1.15;;
79015;SDS011;72726;44.842;37.556;2024-01-25T03:58:55;2.28;;;0.98;;
79015;SDS011;72726;44.842;37.556;2024-01-25T03:59:56;2.55;;;0.98;;
79015;SDS011;72726;44.842;37.556;2024-01-25T04:00:57;1.23;;;0.90;;
79015;SDS011;72726;44.842;37.556;2024-01-25T04:01:59;2.45;;;1.17;;
79015;SDS011;72726;44.842;37.556;2024-01-25T04:03:00;1.10;;;0.95;;
79015;SDS011;72726;44.842;37.556;2024-01-25T04:04:01;1.80;;;0.90;;
79015;SDS011;72726;44.842;37.556;2024-01-25T04:05:03;1.90;;;1.02;;
79015;SDS011;72726;44.842;37.556;2024-01-25T04:06:05;3.53;;;0.90;;
79015;SDS011;72726;44.842;37.556;2024-01-25T04:07:06;2.85;;;0.80;;
79015;SDS011;72726;44.842;37.556;2024-01-25T04:08:07;2.70;;;0.85;;
79015;SDS011;72726;44.842;37.556;2024-01-25T04:09:09;1.40;;;0.77;;
79015;SDS011;72726;44.842;37.556;2024-01-25T04:10:11;2.88;;;0.88;;
79015;SDS011;72726;44.842;37.556;2024-01-25T04:11:12;3.80;;;1.00;;
79015;SDS011;72726;44.842;37.556;2024-01-25T04:12:14;1.67;;;0.90;;
79015;SDS011;72726;44.842;37.556;2024-01-25T04:13:15;4.85;;;1.27;;
79015;SDS011;72726;44.842;37.556;2024-01-25T04:14:16;2.90;;;1.13;;
79015;SDS011;72726;44.842;37.556;2024-01-25T04:15:17;3.45;;;1.00;;
79015;SDS011;72726;44.842;37.556;2024-01-25T04:16:18;2.65;;;1.00;;
79015;SDS011;72726;44.842;37.556;2024-01-25T04:17:19;3.75;;;1.15;;
79015;SDS011;72726;44.842;37.556;2024-01-25T04:18:21;2.72;;;0.93;;
79015;SDS011;72726;44.842;37.556;2024-01-25T04:19:22;1.65;;;0.90;;
79015;SDS011;72726;44.842;37.556;2024-01-25T04:20:23;3.03;;;1.20;;
79015;SDS011;72726;44.842;37.556;2024-01-25T04:21:24;1.88;;;1.10;;
79015;SDS011;72726;44.842;37.556;2024-01-25T04:22:25;3.08;;;0.90;;
79015;SDS011;72726;44.842;37.556;2024-01-25T04:23:26;2.28;;;1.00;;
79015;SDS011;72726;44.842;37.556;2024-01-25T04:24:27;4.43;;;1.00;;
79015;SDS011;72726;44.842;37.556;2024-01-25T04:25:28;1.13;;;0.80;;
79015;SDS011;72726;44.842;37.556;2024-01-25T04:26:30;2.88;;;1.10;;
79015;SDS011;72726;44.842;37.556;2024-01-25T04:27:31;2.55;;;1.00;;
79015;SDS011;72726;44.842;37.556;2024-01-25T04:28:32;1.92;;;0.93;;
79015;SDS011;72726;44.842;37.556;2024-01-25T04:29:33;2.95;;;0.80;;
79015;SDS011;72726;44.842;37.556;2024-01-25T04:30:34;4.55;;;0.90;;
79015;SDS011;72726;44.842;37.556;2024-01-25T04:31:41;1.80;;;1.00;;
79015;SDS011;72726;44.842;37.556;2024-01-25T04:32:43;1.55;;;1.00;;
79015;SDS011;72726;44.842;37.556;2024-01-25T04:33:45;0.93;;;0.85;;
79015;SDS011;72726;44.842;37.556;2024-01-25T04:34:46;2.40;;;1.08;;
79015;SDS011;72726;44.842;37.556;2024-01-25T04:35:48;2.47;;;1.23;;
79015;SDS011;72726;44.842;37.556;2024-01-25T04:36:49;1.88;;;1.00;;
79015;SDS011;72726;44.842;37.556;2024-01-25T04:37:50;3.03;;;1.13;;
79015;SDS011;72726;44.842;37.556;2024-01-25T04:38:51;3.55;;;1.25;;
79015;SDS011;72726;44.842;37.556;2024-01-25T04:39:53;1.75;;;1.00;;
79015;SDS011;72726;44.842;37.556;2024-01-25T04:40:54;2.95;;;1.13;;
79015;SDS011;72726;44.842;37.556;2024-01-25T04:41:55;4.88;;;1.52;;
79015;SDS011;72726;44.842;37.556;2024-01-25T04:42:56;2.10;;;1.10;;
79015;SDS011;72726;44.842;37.556;2024-01-25T04:43:57;2.13;;;1.10;;
79015;SDS011;72726;44.842;37.556;2024-01-25T04:44:58;2.90;;;1.30;;
79015;SDS011;72726;44.842;37.556;2024-01-25T04:46:00;2.10;;;1.05;;
79015;SDS011;72726;44.842;37.556;2024-01-25T04:47:01;4.38;;;1.25;;
79015;SDS011;72726;44.842;37.556;2024-01-25T04:48:02;3.63;;;1.05;;
79015;SDS011;72726;44.842;37.556;2024-01-25T04:49:03;2.83;;;1.30;;
79015;SDS011;72726;44.842;37.556;2024-01-25T04:50:05;2.70;;;0.90;;
79015;SDS011;72726;44.842;37.556;2024-01-25T04:51:06;2.22;;;1.10;;
79015;SDS011;72726;44.842;37.556;2024-01-25T04:52:07;2.63;;;1.10;;
79015;SDS011;72726;44.842;37.556;2024-01-25T04:53:08;5.07;;;1.10;;
79015;SDS011;72726;44.842;37.556;2024-01-25T04:54:10;1.83;;;0.80;;
79015;SDS011;72726;44.842;37.556;2024-01-25T04:55:13;6.20;;;1.20;;
79015;SDS011;72726;44.842;37.556;2024-01-25T04:56:14;2.38;;;0.90;;
79015;SDS011;72726;44.842;37.556;2024-01-25T04:57:16;3.20;;;1.20;;
79015;SDS011;72726;44.842;37.556;2024-01-25T04:58:17;3.35;;;1.05;;
79015;SDS011;72726;44.842;37.556;2024-01-25T04:59:18;3.50;;;1.10;;
79015;SDS011;72726;44.842;37.556;2024-01-25T05:00:21;1.85;;;1.00;;
79015;SDS011;72726;44.842;37.556;2024-01-25T05:01:22;2.90;;;1.30;;
79015;SDS011;72726;44.842;37.556;2024-01-25T05:02:24;2.78;;;1.00;;
79015;SDS011;72726;44.842;37.556;2024-01-25T05:03:25;2.53;;;1.10;;
79015;SDS011;72726;44.842;37.556;2024-01-25T05:04:28;3.28;;;1.13;;
79015;SDS011;72726;44.842;37.556;2024-01-25T05:05:29;3.53;;;1.40;;
79015;SDS011;72726;44.842;37.556;2024-01-25T05:06:31;3.70;;;1.95;;
79015;SDS011;72726;44.842;37.556;2024-01-25T05:07:32;5.47;;;2.65;;
79015;SDS011;72726;44.842;37.556;2024-01-25T05:08:33;6.60;;;2.50;;
79015;SDS011;72726;44.842;37.556;2024-01-25T05:09:34;5.20;;;2.10;;
79015;SDS011;72726;44.842;37.556;2024-01-25T05:10:35;3.97;;;1.45;;
79015;SDS011;72726;44.842;37.556;2024-01-25T05:11:39;2.90;;;1.30;;
79015;SDS011;72726;44.842;37.556;2024-01-25T05:12:40;3.40;;;1.23;;
79015;SDS011;72726;44.842;37.556;2024-01-25T05:13:42;3.50;;;1.10;;
79015;SDS011;72726;44.842;37.556;2024-01-25T05:14:43;1.75;;;0.80;;
79015;SDS011;72726;44.842;37.556;2024-01-25T05:15:44;3.40;;;1.10;;
79015;SDS011;72726;44.842;37.556;2024-01-25T05:16:45;3.78;;;1.00;;
79015;SDS011;72726;44.842;37.556;2024-01-25T05:17:46;4.47;;;1.45;;
79015;SDS011;72726;44.842;37.556;2024-01-25T05:18:47;2.63;;;1.15;;
79015;SDS011;72726;44.842;37.556;2024-01-25T05:19:49;2.40;;;1.13;;
79015;SDS011;72726;44.842;37.556;2024-01-25T05:20:50;2.45;;;1.20;;
79015;SDS011;72726;44.842;37.556;2024-01-25T05:21:51;2.35;;;1.20;;
79015;SDS011;72726;44.842;37.556;2024-01-25T05:22:52;3.90;;;1.33;;
79015;SDS011;72726;44.842;37.556;2024-01-25T05:23:53;2.60;;;1.10;;
79015;SDS011;72726;44.842;37.556;2024-01-25T05:24:54;2.97;;;1.23;;
79015;SDS011;72726;44.842;37.556;2024-01-25T05:25:55;2.80;;;1.35;;
79015;SDS011;72726;44.842;37.556;2024-01-25T05:26:57;2.00;;;1.00;;
79015;SDS011;72726;44.842;37.556;2024-01-25T05:27:58;3.38;;;1.02;;
79015;SDS011;72726;44.842;37.556;2024-01-25T05:28:59;3.08;;;1.30;;
79015;SDS011;72726;44.842;37.556;2024-01-25T05:30:01;3.88;;;1.30;;
79015;SDS011;72726;44.842;37.556;2024-01-25T05:31:02;2.67;;;1.25;;
79015;SDS011;72726;44.842;37.556;2024-01-25T05:32:03;2.35;;;1.20;;
79015;SDS011;72726;44.842;37.556;2024-01-25T05:33:04;4.22;;;1.10;;
79015;SDS011;72726;44.842;37.556;2024-01-25T05:34:05;2.13;;;0.98;;
79015;SDS011;72726;44.842;37.556;2024-01-25T05:35:07;3.40;;;1.02;;
79015;SDS011;72726;44.842;37.556;2024-01-25T05:36:08;2.53;;;0.90;;
79015;SDS011;72726;44.842;37.556;2024-01-25T05:37:10;3.45;;;1.02;;
79015;SDS011;72726;44.842;37.556;2024-01-25T05:38:11;3.90;;;1.00;;
79015;SDS011;72726;44.842;37.556;2024-01-25T05:39:13;4.78;;;1.25;;
79015;SDS011;72726;44.842;37.556;2024-01-25T05:40:14;2.00;;;0.93;;
79015;SDS011;72726;44.842;37.556;2024-01-25T05:41:15;4.18;;;1.20;;
79015;SDS011;72726;44.842;37.556;2024-01-25T05:42:17;2.85;;;1.33;;
79015;SDS011;72726;44.842;37.556;2024-01-25T05:43:18;1.63;;;0.93;;
79015;SDS011;72726;44.842;37.556;2024-01-25T05:44:19;1.50;;;1.05;;
79015;SDS011;72726;44.842;37.556;2024-01-25T05:45:21;2.35;;;1.13;;
79015;SDS011;72726;44.842;37.556;2024-01-25T05:46:22;3.20;;;1.30;;
79015;SDS011;72726;44.842;37.556;2024-01-25T05:47:23;3.10;;;1.20;;
79015;SDS011;72726;44.842;37.556;2024-01-25T05:48:24;2.75;;;1.23;;
79015;SDS011;72726;44.842;37.556;2024-01-25T05:49:26;5.55;;;2.28;;
79015;SDS011;72726;44.842;37.556;2024-01-25T05:50:27;5.03;;;1.77;;
79015;SDS011;72726;44.842;37.556;2024-01-25T05:51:28;5.65;;;1.83;;
79015;SDS011;72726;44.842;37.556;2024-01-25T05:52:30;5.05;;;2.22;;
79015;SDS011;72726;44.842;37.556;2024-01-25T05:53:31;6.25;;;2.30;;
79015;SDS011;72726;44.842;37.556;2024-01-25T05:54:32;6.82;;;2.40;;
79015;SDS011;72726;44.842;37.556;2024-01-25T05:55:34;17.10;;;7.68;;
79015;SDS011;72726;44.842;37.556;2024-01-25T05:56:35;11.23;;;5.30;;
79015;SDS011;72726;44.842;37.556;2024-01-25T05:57:36;5.38;;;2.10;;
79015;SDS011;72726;44.842;37.556;2024-01-25T05:58:38;3.97;;;1.60;;
79015;SDS011;72726;44.842;37.556;2024-01-25T05:59:39;6.00;;;1.60;;
79015;SDS011;72726;44.842;37.556;2024-01-25T06:00:40;4.40;;;1.70;;
79015;SDS011;72726;44.842;37.556;2024-01-25T06:01:41;2.90;;;1.20;;
79015;SDS011;72726;44.842;37.556;2024-01-25T06:02:42;1.63;;;1.00;;
79015;SDS011;72726;44.842;37.556;2024-01-25T06:03:44;4.28;;;1.25;;
79015;SDS011;72726;44.842;37.556;2024-01-25T06:04:45;10.45;;;4.20;;